Time;durP1;ratioP1;P1;durP2;ratioP2;P2;SDS_P1;SDS_P2;PMS_P1;PMS_P2;Temp;Humidity;BMP_temperature;BMP_pressure;BME280_temperature;BME280_humidity;BME280_pressure;Samples;Min_cycle;Max_cycle;Signal;HPM_P1;HPM_P2
2023/01/04 00:01:19;;;;;;;3.00;1.83;;;9.20;99.90;;;;;;4972451;28;20435;-75
2023/01/04 00:03:48;;;;;;;4.77;2.07;;;9.20;99.90;;;;;;4936450;29;20446;-76
2023/01/04 00:06:15;;;;;;;1.93;1.40;;;9.10;99.90;;;;;;4966736;28;20443;-75
2023/01/04 00:08:44;;;;;;;7.10;2.37;;;9.20;99.90;;;;;;4955657;28;20826;-75
2023/01/04 00:11:17;;;;;;;4.97;1.70;;;9.10;99.90;;;;;;4968455;28;20896;-76
2023/01/04 00:13:49;;;;;;;4.60;2.60;;;9.20;99.90;;;;;;4971621;28;20496;-75
2023/01/04 00:16:18;;;;;;;3.67;2.00;;;9.20;99.90;;;;;;4959350;28;20438;-76
2023/01/04 00:18:47;;;;;;;1.93;1.50;;;9.10;99.90;;;;;;4971313;28;21054;-76
2023/01/04 00:21:18;;;;;;;3.90;1.97;;;9.20;99.90;;;;;;4941522;28;20993;-76
2023/01/04 00:23:49;;;;;;;4.20;1.80;;;9.20;99.90;;;;;;4952672;29;20918;-76
2023/01/04 00:26:19;;;;;;;2.77;1.87;;;9.20;99.90;;;;;;4966128;28;20934;-75
2023/01/04 00:28:46;;;;;;;2.93;1.30;;;9.20;99.90;;;;;;4971902;28;20866;-75
2023/01/04 00:31:15;;;;;;;4.57;2.20;;;9.20;99.90;;;;;;4971514;28;20445;-75
2023/01/04 00:33:45;;;;;;;3.70;1.97;;;9.20;99.90;;;;;;4971401;28;20553;-76
2023/01/04 00:36:14;;;;;;;4.60;1.87;;;9.20;99.90;;;;;;4967824;28;20437;-76
2023/01/04 00:38:43;;;;;;;5.13;1.80;;;9.20;99.90;;;;;;4971524;28;20456;-76
2023/01/04 00:41:14;;;;;;;5.50;1.90;;;9.20;99.90;;;;;;4959079;28;20833;-76
2023/01/04 00:43:42;;;;;;;4.97;1.70;;;9.20;99.90;;;;;;4937150;29;20444;-76
2023/01/04 00:46:11;;;;;;;2.50;1.70;;;9.20;99.90;;;;;;4949560;28;20430;-76
2023/01/04 00:48:37;;;;;;;2.47;1.80;;;9.20;99.90;;;;;;4954256;28;20440;-76
2023/01/04 00:51:06;;;;;;;2.33;1.50;;;9.20;99.90;;;;;;4964280;28;20513;-76
2023/01/04 00:53:37;;;;;;;2.90;1.60;;;9.20;99.90;;;;;;4956663;29;20457;-76
2023/01/04 00:56:04;;;;;;;2.50;1.60;;;9.20;99.90;;;;;;4964251;28;20532;-76
2023/01/04 00:58:32;;;;;;;3.17;1.80;;;9.20;99.90;;;;;;4973622;28;20463;-76
2023/01/04 01:01:04;;;;;;;3.67;1.50;;;9.20;99.90;;;;;;4971694;28;20438;-76
2023/01/04 01:03:33;;;;;;;3.60;1.33;;;9.20;99.90;;;;;;4992055;28;20532;-76
2023/01/04 01:06:06;;;;;;;5.73;1.67;;;9.20;99.90;;;;;;4976207;28;20816;-76
2023/01/04 01:08:33;;;;;;;3.90;1.60;;;9.20;99.90;;;;;;4960675;28;20427;-76
2023/01/04 01:11:08;;;;;;;2.30;1.67;;;9.20;99.90;;;;;;4951299;28;20468;-76
2023/01/04 01:13:35;;;;;;;3.20;1.87;;;9.20;99.90;;;;;;4955949;29;20460;-76
2023/01/04 01:16:06;;;;;;;4.13;1.67;;;9.20;99.90;;;;;;4956567;28;20457;-75
2023/01/04 01:18:37;;;;;;;4.37;2.00;;;9.20;99.90;;;;;;4972879;28;20483;-76
2023/01/04 01:21:05;;;;;;;3.00;1.60;;;9.20;99.90;;;;;;4972053;28;20504;-76
2023/01/04 01:23:31;;;;;;;2.90;1.43;;;9.20;99.90;;;;;;4962897;28;21045;-75
2023/01/04 01:26:02;;;;;;;3.33;2.73;;;9.20;99.90;;;;;;4965508;28;20505;-76
2023/01/04 01:28:28;;;;;;;5.87;1.60;;;9.20;99.90;;;;;;4960676;28;20466;-76
2023/01/04 01:30:58;;;;;;;2.87;1.60;;;9.20;99.90;;;;;;4985044;28;20920;-76
2023/01/04 01:33:25;;;;;;;4.30;2.07;;;9.20;99.90;;;;;;4975087;28;20556;-76
2023/01/04 01:35:53;;;;;;;4.90;1.87;;;9.20;99.90;;;;;;4958090;28;20455;-76
2023/01/04 01:38:20;;;;;;;4.60;1.47;;;9.20;99.90;;;;;;4976078;28;21023;-76
2023/01/04 01:40:46;;;;;;;3.17;1.57;;;9.20;99.90;;;;;;4967007;28;20458;-76
2023/01/04 01:43:22;;;;;;;7.20;1.37;;;9.20;99.90;;;;;;4940649;28;20482;-75
2023/01/04 01:45:55;;;;;;;2.37;1.40;;;9.20;99.90;;;;;;4974934;28;20914;-76
2023/01/04 01:48:25;;;;;;;3.20;1.33;;;9.20;99.90;;;;;;4974290;28;20453;-76
2023/01/04 01:50:54;;;;;;;4.10;1.80;;;9.20;99.90;;;;;;4945454;29;20457;-76
2023/01/04 01:53:24;;;;;;;3.17;1.73;;;9.20;99.90;;;;;;4969771;28;20547;-76
2023/01/04 01:55:55;;;;;;;3.20;1.40;;;9.20;99.90;;;;;;4955421;29;20407;-76
2023/01/04 01:58:36;;;;;;;2.17;1.47;;;9.20;99.90;;;;;;4955640;28;20463;-75
2023/01/04 02:01:02;;;;;;;1.93;1.50;;;9.20;99.90;;;;;;4958509;28;20503;-76
2023/01/04 02:03:37;;;;;;;4.53;1.77;;;9.20;99.90;;;;;;4957589;28;20474;-76
2023/01/04 02:06:07;;;;;;;3.80;1.60;;;9.20;99.90;;;;;;4958537;28;20418;-76
2023/01/04 02:08:39;;;;;;;3.43;1.50;;;9.20;99.90;;;;;;4957145;28;20457;-76
2023/01/04 02:11:05;;;;;;;3.60;1.33;;;9.20;99.90;;;;;;4960620;28;20568;-76
2023/01/04 02:16:28;;;;;;;4.10;1.97;;;9.20;99.90;;;;;;4973540;28;20461;-76
2023/01/04 02:19:11;;;;;;;4.60;1.83;;;9.20;99.90;;;;;;4970689;28;20911;-75
2023/01/04 02:21:59;;;;;;;3.07;1.40;;;9.20;99.90;;;;;;4960182;28;20441;-76
2023/01/04 02:24:51;;;;;;;4.23;1.40;;;9.20;99.90;;;;;;4956434;28;20443;-76
2023/01/04 02:27:54;;;;;;;2.60;1.50;;;9.20;99.90;;;;;;4954509;28;20439;-76
2023/01/04 02:30:46;;;;;;;4.67;2.00;;;9.20;99.90;;;;;;4955044;28;20441;-76
2023/01/04 02:33:31;;;;;;;1.97;1.50;;;9.20;99.90;;;;;;4945689;28;20451;-73
2023/01/04 02:36:20;;;;;;;3.90;1.87;;;9.20;99.90;;;;;;4956031;29;20406;-72
2023/01/04 02:39:14;;;;;;;4.10;1.70;;;9.20;99.90;;;;;;4955843;29;20453;-72
2023/01/04 02:42:06;;;;;;;2.50;1.77;;;9.20;99.90;;;;;;4956095;29;20402;-72
2023/01/04 02:44:52;;;;;;;4.90;1.83;;;9.20;99.90;;;;;;4956138;29;20814;-72
2023/01/04 02:50:47;;;;;;;3.60;1.63;;;9.20;99.90;;;;;;4956849;29;20439;-72
2023/01/04 02:53:25;;;;;;;3.77;1.70;;;9.20;99.90;;;;;;4955416;29;20447;-72
2023/01/04 02:56:08;;;;;;;4.03;1.77;;;9.20;99.90;;;;;;4939897;29;20422;-72
2023/01/04 02:58:50;;;;;;;2.63;1.50;;;9.20;99.90;;;;;;4956697;28;20454;-72
2023/01/04 03:08:00;;;;;;;3.47;1.17;;;9.20;99.90;;;;;;4955643;29;20832;-73
2023/01/04 03:10:48;;;;;;;2.90;1.50;;;9.10;99.90;;;;;;4933745;29;20808;-73
2023/01/04 03:13:25;;;;;;;4.53;1.63;;;9.20;99.90;;;;;;4954874;28;20446;-72
2023/01/04 03:15:58;;;;;;;4.03;2.10;;;9.10;99.90;;;;;;4956432;28;20547;-73
2023/01/04 03:18:36;;;;;;;3.17;1.80;;;9.20;99.90;;;;;;4954891;29;20885;-72
2023/01/04 03:21:04;;;;;;;5.13;1.60;;;9.20;99.90;;;;;;4939084;29;20451;-73
2023/01/04 03:35:41;;;;;;;3.40;1.90;;;9.20;99.90;;;;;;4954888;29;20442;-72
2023/01/04 03:50:28;;;;;;;2.53;1.50;;;9.30;99.90;;;;;;4954736;29;20404;-72
2023/01/04 03:52:55;;;;;;;2.57;1.23;;;9.20;99.90;;;;;;4955813;28;20435;-72
2023/01/04 03:55:30;;;;;;;2.70;1.30;;;9.30;99.90;;;;;;4938562;29;20459;-72
2023/01/04 03:58:00;;;;;;;2.30;1.17;;;9.30;99.90;;;;;;4954432;29;20482;-73
2023/01/04 04:00:26;;;;;;;4.80;1.20;;;9.30;99.90;;;;;;4938710;29;20449;-72
2023/01/04 04:03:05;;;;;;;1.40;1.17;;;9.20;99.90;;;;;;4938643;29;20423;-72
2023/01/04 04:08:27;;;;;;;2.97;1.33;;;9.30;99.90;;;;;;4954247;29;20509;-72
2023/01/04 04:10:55;;;;;;;1.47;0.87;;;9.30;99.90;;;;;;4955654;29;20900;-72
2023/01/04 04:13:21;;;;;;;1.60;1.10;;;9.30;99.90;;;;;;4954438;28;20427;-72
2023/01/04 04:15:55;;;;;;;1.23;0.97;;;9.30;99.90;;;;;;4955410;29;20908;-72
2023/01/04 04:18:23;;;;;;;3.93;1.20;;;9.30;99.90;;;;;;4954222;28;20476;-72
2023/01/04 04:20:57;;;;;;;2.30;0.97;;;9.30;99.90;;;;;;4955333;29;20487;-72
2023/01/04 04:23:27;;;;;;;1.90;1.10;;;9.30;99.90;;;;;;4969444;28;20473;-72
2023/01/04 04:25:53;;;;;;;1.80;1.07;;;9.30;99.90;;;;;;4953698;29;20404;-72
2023/01/04 04:28:25;;;;;;;1.10;1.00;;;9.30;99.90;;;;;;4954156;29;20912;-72
2023/01/04 04:30:54;;;;;;;1.40;1.10;;;9.40;99.90;;;;;;4954071;29;20486;-72
2023/01/04 04:33:24;;;;;;;1.60;1.00;;;9.30;99.90;;;;;;4938495;29;20454;-72
2023/01/04 04:35:51;;;;;;;3.37;1.20;;;9.30;99.90;;;;;;4954007;29;20405;-72
2023/01/04 04:38:21;;;;;;;2.67;0.90;;;9.40;99.90;;;;;;4953984;29;20518;-72
2023/01/04 04:43:37;;;;;;;1.30;0.90;;;9.40;99.90;;;;;;4955045;29;20445;-72
2023/01/04 04:46:06;;;;;;;1.97;1.17;;;9.30;99.90;;;;;;4954282;29;20406;-72
2023/01/04 04:48:32;;;;;;;1.30;1.20;;;9.40;99.90;;;;;;4954028;29;20426;-72
2023/01/04 04:50:58;;;;;;;2.63;0.80;;;9.40;99.90;;;;;;4955092;29;20957;-72
2023/01/04 04:53:27;;;;;;;2.50;0.80;;;9.40;99.90;;;;;;4937917;29;20562;-72
2023/01/04 04:55:53;;;;;;;1.83;0.90;;;9.40;99.90;;;;;;4953874;29;20486;-72
2023/01/04 04:58:24;;;;;;;1.30;1.07;;;9.40;99.90;;;;;;4954818;29;20451;-72
2023/01/04 05:00:51;;;;;;;2.90;1.13;;;9.40;99.90;;;;;;4954941;29;20908;-72
2023/01/04 05:03:21;;;;;;;1.03;0.70;;;9.40;99.90;;;;;;4953735;29;20457;-72
2023/01/04 05:05:48;;;;;;;1.60;0.90;;;9.40;99.90;;;;;;4937911;29;20427;-72
2023/01/04 05:08:16;;;;;;;2.00;0.80;;;9.40;99.90;;;;;;4953652;28;20446;-72
2023/01/04 05:10:45;;;;;;;0.90;0.70;;;9.50;99.90;;;;;;4954570;28;20410;-72
2023/01/04 05:13:12;;;;;;;1.63;0.70;;;9.50;99.90;;;;;;4954592;28;20443;-72
2023/01/04 05:15:42;;;;;;;0.90;0.70;;;9.50;99.90;;;;;;4938144;29;20430;-72
2023/01/04 05:18:11;;;;;;;2.13;1.20;;;9.50;99.90;;;;;;4937618;29;20473;-72
2023/01/04 05:20:39;;;;;;;1.27;0.90;;;9.50;99.90;;;;;;4954851;28;20882;-72
2023/01/04 05:23:11;;;;;;;0.90;0.80;;;9.50;99.90;;;;;;4937675;29;20454;-72
2023/01/04 05:25:40;;;;;;;1.07;0.90;;;9.50;99.90;;;;;;4968034;28;20450;-72
2023/01/04 05:28:09;;;;;;;1.37;0.80;;;9.50;99.90;;;;;;4974063;28;20823;-72
2023/01/04 05:30:52;;;;;;;1.40;0.80;;;9.50;99.90;;;;;;4956805;28;21042;-72
2023/01/04 05:33:29;;;;;;;1.00;0.70;;;9.50;99.90;;;;;;4973897;28;20430;-72
2023/01/04 05:36:00;;;;;;;1.80;0.70;;;9.50;99.90;;;;;;4974333;28;20452;-72
2023/01/04 05:38:27;;;;;;;1.23;0.63;;;9.50;99.90;;;;;;4976386;28;20967;-74
2023/01/04 05:40:56;;;;;;;1.90;0.90;;;9.50;99.90;;;;;;4976044;28;20409;-72
2023/01/04 05:43:26;;;;;;;1.10;0.80;;;9.50;99.90;;;;;;4960135;28;20530;-72
2023/01/04 05:46:00;;;;;;;1.70;1.13;;;9.60;99.90;;;;;;4960081;28;20456;-72
2023/01/04 05:48:28;;;;;;;0.90;0.70;;;9.60;99.90;;;;;;4960126;28;20787;-72
2023/01/04 05:50:54;;;;;;;1.20;0.80;;;9.60;99.90;;;;;;4977325;28;20805;-72
2023/01/04 05:53:20;;;;;;;2.37;0.70;;;9.60;99.90;;;;;;4960158;28;20967;-72
2023/01/04 05:55:49;;;;;;;1.50;0.83;;;9.60;99.90;;;;;;4972642;28;20850;-72
2023/01/04 05:58:20;;;;;;;1.07;0.70;;;9.60;99.90;;;;;;4940885;28;20573;-72
2023/01/04 06:00:51;;;;;;;0.83;0.60;;;9.60;99.90;;;;;;4958449;28;20388;-72
2023/01/04 06:03:17;;;;;;;1.20;0.60;;;9.60;99.90;;;;;;4977000;28;20451;-72
2023/01/04 06:05:50;;;;;;;1.00;0.70;;;9.60;99.90;;;;;;4960314;28;20430;-72
2023/01/04 06:08:18;;;;;;;1.30;0.93;;;9.60;99.90;;;;;;4959976;28;20971;-72
2023/01/04 06:10:50;;;;;;;1.30;0.80;;;9.60;99.90;;;;;;4959897;28;20640;-72
2023/01/04 06:13:16;;;;;;;1.73;0.90;;;9.60;99.90;;;;;;4975689;28;20445;-72
2023/01/04 06:15:45;;;;;;;1.10;0.90;;;9.60;99.90;;;;;;4976807;28;20833;-72
2023/01/04 06:18:18;;;;;;;1.10;0.60;;;9.60;99.90;;;;;;4975649;28;20560;-72
2023/01/04 06:20:44;;;;;;;0.93;0.80;;;9.60;99.90;;;;;;4975586;28;20406;-72
2023/01/04 06:23:11;;;;;;;1.00;0.73;;;9.60;99.90;;;;;;4976774;28;20430;-72
2023/01/04 06:25:39;;;;;;;0.90;0.77;;;9.60;99.90;;;;;;4975335;28;20402;-72
2023/01/04 06:28:06;;;;;;;1.10;1.00;;;9.60;99.90;;;;;;4959362;28;20406;-72
2023/01/04 06:30:34;;;;;;;1.70;0.63;;;9.60;99.90;;;;;;4959848;28;20402;-72
2023/01/04 06:33:00;;;;;;;1.07;0.70;;;9.60;99.90;;;;;;4959269;28;20438;-72
2023/01/04 06:35:26;;;;;;;2.30;0.80;;;9.60;99.90;;;;;;4972526;28;20848;-72
2023/01/04 06:37:55;;;;;;;2.90;0.77;;;9.70;99.90;;;;;;4957273;28;20478;-72
2023/01/04 06:40:28;;;;;;;1.07;0.70;;;9.70;99.90;;;;;;4940313;29;20430;-72
2023/01/04 06:42:56;;;;;;;1.40;0.73;;;9.70;99.90;;;;;;4955951;29;20451;-72
2023/01/04 06:45:23;;;;;;;1.90;0.83;;;9.70;99.90;;;;;;4957014;29;20408;-72
2023/01/04 06:47:48;;;;;;;1.37;0.60;;;9.70;99.90;;;;;;4939269;29;20415;-72
2023/01/04 06:50:15;;;;;;;0.90;0.50;;;9.70;99.90;;;;;;4955723;29;20414;-72
2023/01/04 06:52:42;;;;;;;1.73;0.80;;;9.70;99.90;;;;;;4956855;29;20410;-72
2023/01/04 06:55:10;;;;;;;1.70;0.70;;;9.70;99.90;;;;;;4955598;29;20431;-72
2023/01/04 06:57:40;;;;;;;1.63;0.90;;;9.70;99.90;;;;;;4956788;29;21056;-71
2023/01/04 07:00:07;;;;;;;1.57;0.90;;;9.80;99.90;;;;;;4939732;28;20839;-72
2023/01/04 07:02:34;;;;;;;2.03;0.70;;;9.80;99.90;;;;;;4955489;29;20410;-72
2023/01/04 07:05:01;;;;;;;2.77;0.90;;;9.80;99.90;;;;;;4955454;29;20392;-72
2023/01/04 07:07:34;;;;;;;1.93;0.70;;;9.80;99.90;;;;;;4939911;29;20430;-73
2023/01/04 07:10:00;;;;;;;1.13;0.70;;;9.80;99.90;;;;;;4956367;29;20795;-74
2023/01/04 07:12:26;;;;;;;1.20;0.87;;;9.80;99.90;;;;;;4959195;28;20802;-74
2023/01/04 07:14:55;;;;;;;1.40;0.70;;;9.80;99.90;;;;;;4955780;28;20784;-75
2023/01/04 07:17:21;;;;;;;1.47;0.60;;;9.80;99.90;;;;;;4957056;28;20948;-76
2023/01/04 07:19:47;;;;;;;2.30;0.83;;;9.80;99.90;;;;;;4952962;28;20466;-75
2023/01/04 07:22:13;;;;;;;1.00;0.70;;;9.80;99.90;;;;;;4973670;28;20882;-76
2023/01/04 07:24:42;;;;;;;0.70;0.70;;;9.80;99.90;;;;;;4973927;28;20444;-76
2023/01/04 07:27:09;;;;;;;1.30;0.83;;;9.80;99.90;;;;;;4973612;28;20488;-75
2023/01/04 07:29:36;;;;;;;1.00;0.70;;;9.90;99.90;;;;;;4964882;28;20493;-75
2023/01/04 07:32:02;;;;;;;2.83;0.80;;;9.80;99.90;;;;;;4954720;29;20418;-75
2023/01/04 07:34:29;;;;;;;1.00;0.90;;;9.80;99.90;;;;;;4964081;28;20513;-75
2023/01/04 07:37:00;;;;;;;1.30;0.80;;;9.90;99.90;;;;;;4988466;28;20402;-75
2023/01/04 07:39:26;;;;;;;1.10;0.70;;;9.90;99.90;;;;;;4972093;28;20465;-74
2023/01/04 07:41:52;;;;;;;1.00;0.90;;;9.90;99.90;;;;;;4957058;28;20891;-75
2023/01/04 07:44:20;;;;;;;1.37;1.03;;;9.90;99.90;;;;;;4969409;28;20829;-74
2023/01/04 07:46:47;;;;;;;1.10;1.00;;;9.90;99.90;;;;;;4968987;28;21015;-75
2023/01/04 07:49:17;;;;;;;1.20;0.80;;;9.90;99.90;;;;;;4964743;28;20527;-74
2023/01/04 07:51:50;;;;;;;1.63;0.97;;;9.90;99.90;;;;;;4972145;28;20494;-75
2023/01/04 07:54:17;;;;;;;1.83;0.90;;;9.90;99.90;;;;;;4996273;28;20543;-74
2023/01/04 07:56:47;;;;;;;1.60;1.10;;;9.90;99.90;;;;;;4956307;28;20426;-74
2023/01/04 07:59:16;;;;;;;1.90;1.23;;;9.90;99.90;;;;;;4971264;28;20553;-75
2023/01/04 08:01:47;;;;;;;2.10;1.27;;;9.90;99.90;;;;;;4938384;29;20439;-75
2023/01/04 08:04:14;;;;;;;1.87;1.27;;;9.90;99.90;;;;;;4965184;28;20446;-75
2023/01/04 08:06:42;;;;;;;2.30;1.00;;;9.90;99.90;;;;;;4960466;28;20955;-73
2023/01/04 08:09:13;;;;;;;3.10;1.10;;;10.00;99.90;;;;;;4954061;29;20921;-74
2023/01/04 08:11:39;;;;;;;1.80;1.10;;;10.00;99.90;;;;;;4972497;28;20422;-74
2023/01/04 08:14:05;;;;;;;1.60;0.90;;;10.00;99.90;;;;;;4972741;28;20905;-74
2023/01/04 08:16:36;;;;;;;1.53;1.20;;;10.00;99.90;;;;;;4972162;28;20488;-74
2023/01/04 08:19:22;;;;;;;1.20;1.10;;;10.00;99.90;;;;;;4954570;28;21039;-74
2023/01/04 08:21:50;;;;;;;1.50;1.10;;;10.00;99.90;;;;;;4967847;28;20541;-74
2023/01/04 08:24:18;;;;;;;1.20;1.10;;;10.00;99.90;;;;;;4974726;28;20470;-73
2023/01/04 08:26:50;;;;;;;1.60;1.20;;;10.00;99.90;;;;;;4958083;28;20516;-73
2023/01/04 08:29:24;;;;;;;1.53;1.20;;;10.00;99.90;;;;;;4970346;28;20484;-73
2023/01/04 08:31:50;;;;;;;1.57;1.10;;;10.00;99.90;;;;;;4971749;28;20422;-74
2023/01/04 08:34:16;;;;;;;1.70;1.30;;;10.00;99.90;;;;;;4973445;28;20955;-74
2023/01/04 08:36:53;;;;;;;2.20;1.40;;;10.00;99.90;;;;;;4964008;28;20453;-74
2023/01/04 08:39:20;;;;;;;2.07;1.50;;;10.00;99.90;;;;;;4955941;28;20462;-73
2023/01/04 08:41:49;;;;;;;3.57;1.77;;;10.10;99.90;;;;;;4955135;28;20466;-73
2023/01/04 08:44:23;;;;;;;1.60;1.23;;;10.10;99.90;;;;;;4955452;28;20438;-74
2023/01/04 08:46:51;;;;;;;2.37;1.83;;;10.10;99.90;;;;;;4972152;28;20912;-73
2023/01/04 08:49:17;;;;;;;2.80;1.73;;;10.10;99.90;;;;;;4953341;29;20423;-74
2023/01/04 08:51:47;;;;;;;2.50;1.90;;;10.10;99.90;;;;;;4978268;28;20436;-73
2023/01/04 08:54:16;;;;;;;2.37;1.50;;;10.10;99.90;;;;;;4955635;28;20455;-73
2023/01/04 08:56:42;;;;;;;2.50;1.40;;;10.10;99.90;;;;;;4973660;28;20418;-77
2023/01/04 08:59:10;;;;;;;2.30;1.30;;;10.10;99.90;;;;;;4956385;28;20807;-74
2023/01/04 09:01:37;;;;;;;1.83;1.60;;;10.10;99.90;;;;;;4992115;28;20871;-74
2023/01/04 09:04:09;;;;;;;1.90;1.50;;;10.10;99.90;;;;;;4954897;28;20490;-74
2023/01/04 09:06:37;;;;;;;1.63;1.50;;;10.20;99.90;;;;;;4952750;28;20493;-74
2023/01/04 09:09:04;;;;;;;2.03;1.30;;;10.20;99.90;;;;;;4950252;29;20454;-74
2023/01/04 09:11:31;;;;;;;1.10;0.90;;;10.20;99.90;;;;;;4977023;28;20444;-75
2023/01/04 09:14:01;;;;;;;2.13;1.67;;;10.20;99.90;;;;;;4963643;28;20557;-74
2023/01/04 09:16:29;;;;;;;1.30;1.20;;;10.20;99.90;;;;;;4975815;28;20539;-74
2023/01/04 09:18:55;;;;;;;2.80;1.13;;;10.20;99.90;;;;;;4967377;28;20816;-73
2023/01/04 09:21:27;;;;;;;1.23;1.07;;;10.20;99.90;;;;;;4979851;28;20409;-74
2023/01/04 09:23:58;;;;;;;2.20;1.50;;;10.30;99.90;;;;;;4982966;28;20461;-74
2023/01/04 09:26:29;;;;;;;1.60;1.10;;;10.20;99.90;;;;;;4956852;28;20501;-74
2023/01/04 09:28:59;;;;;;;2.10;1.20;;;10.30;99.90;;;;;;4972200;28;20454;-74
2023/01/04 09:31:27;;;;;;;1.93;1.20;;;10.30;99.90;;;;;;4976856;28;20406;-74
2023/01/04 09:33:57;;;;;;;2.27;2.03;;;10.30;99.90;;;;;;4975174;28;20463;-74
2023/01/04 09:36:26;;;;;;;7.37;1.40;;;10.30;99.90;;;;;;4966317;28;20860;-74
2023/01/04 09:38:52;;;;;;;1.10;1.00;;;10.30;99.90;;;;;;4970164;28;21003;-74
2023/01/04 09:41:32;;;;;;;2.97;1.30;;;10.30;99.90;;;;;;4976009;28;20411;-74
2023/01/04 09:44:09;;;;;;;1.27;1.00;;;10.30;99.90;;;;;;4976748;28;20449;-74
2023/01/04 09:46:54;;;;;;;1.37;1.07;;;10.30;99.90;;;;;;4975822;28;20437;-75
2023/01/04 09:49:36;;;;;;;1.23;1.13;;;10.30;99.90;;;;;;4959709;28;20434;-74
2023/01/04 09:52:08;;;;;;;1.43;1.13;;;10.30;99.90;;;;;;4986527;28;20425;-74
2023/01/04 09:54:48;;;;;;;1.23;1.10;;;10.30;99.90;;;;;;4988134;28;20471;-74
2023/01/04 09:57:25;;;;;;;1.80;1.03;;;10.30;99.90;;;;;;4963037;28;20525;-74
2023/01/04 10:00:09;;;;;;;3.17;1.07;;;10.40;99.90;;;;;;4940401;29;20438;-74
2023/01/04 10:02:43;;;;;;;1.40;1.00;;;10.40;99.90;;;;;;4957117;29;20418;-74
2023/01/04 10:05:25;;;;;;;2.50;1.10;;;10.40;99.90;;;;;;4940537;29;20442;-74
2023/01/04 10:07:51;;;;;;;1.10;1.00;;;10.40;99.90;;;;;;4966663;28;20821;-74
2023/01/04 10:10:38;;;;;;;1.27;1.07;;;10.40;99.90;;;;;;4956200;28;20408;-74
2023/01/04 10:13:16;;;;;;;1.93;1.00;;;10.40;99.90;;;;;;4956071;28;20477;-73
2023/01/04 10:15:51;;;;;;;1.70;1.20;;;10.40;99.90;;;;;;4982070;28;20452;-74
2023/01/04 10:18:41;;;;;;;1.60;0.97;;;10.40;99.90;;;;;;4995835;28;20492;-74
2023/01/04 10:21:31;;;;;;;2.60;0.90;;;10.40;99.90;;;;;;4995787;28;20465;-74
2023/01/04 10:24:27;;;;;;;1.13;1.00;;;10.40;99.90;;;;;;4978052;28;20529;-74
2023/01/04 10:27:25;;;;;;;2.70;1.33;;;10.40;99.90;;;;;;4955863;29;20407;-74
2023/01/04 10:30:16;;;;;;;1.63;1.33;;;10.40;99.90;;;;;;4979325;28;20595;-74
2023/01/04 10:32:48;;;;;;;1.57;1.00;;;10.40;99.90;;;;;;4978493;28;20489;-74
2023/01/04 10:35:26;;;;;;;3.00;1.13;;;10.40;99.90;;;;;;4980855;28;20446;-74
2023/01/04 10:38:02;;;;;;;1.43;1.10;;;10.40;99.90;;;;;;4956912;29;20451;-74
2023/01/04 10:40:39;;;;;;;2.27;1.00;;;10.40;99.90;;;;;;4940662;29;20708;-74
2023/01/04 10:43:35;;;;;;;1.20;1.00;;;10.40;99.90;;;;;;4959180;28;20430;-74
2023/01/04 10:46:12;;;;;;;1.47;1.03;;;10.40;99.90;;;;;;4984116;28;20541;-74
2023/01/04 10:49:06;;;;;;;3.97;1.10;;;10.40;99.90;;;;;;4974760;28;20514;-74
2023/01/04 10:51:44;;;;;;;4.00;1.20;;;10.40;99.90;;;;;;4958592;28;20441;-74
2023/01/04 10:54:28;;;;;;;2.43;1.40;;;10.40;99.90;;;;;;4977080;28;20500;-74
2023/01/04 10:57:28;;;;;;;1.43;1.07;;;10.50;99.90;;;;;;4972297;28;20509;-74
2023/01/04 11:00:08;;;;;;;2.23;1.10;;;10.50;99.90;;;;;;4948376;28;20443;-74
2023/01/04 11:02:46;;;;;;;2.30;1.40;;;10.50;99.90;;;;;;4939027;29;20450;-73
2023/01/04 11:05:24;;;;;;;2.13;1.33;;;10.50;99.90;;;;;;4960232;28;20915;-75
2023/01/04 11:07:56;;;;;;;2.03;1.10;;;10.50;99.90;;;;;;4990220;28;20398;-74
2023/01/04 11:10:30;;;;;;;1.37;1.03;;;10.50;99.90;;;;;;4999368;28;20488;-74
2023/01/04 11:12:57;;;;;;;2.70;1.30;;;10.50;99.90;;;;;;4994434;28;20437;-74
2023/01/04 11:15:23;;;;;;;1.73;0.80;;;10.50;99.90;;;;;;4977542;28;20432;-74
2023/01/04 11:17:50;;;;;;;3.63;1.10;;;10.50;99.90;;;;;;4959667;28;20471;-73
2023/01/04 11:20:17;;;;;;;1.63;1.30;;;10.50;99.90;;;;;;4989055;28;20931;-74
2023/01/04 11:23:04;;;;;;;4.73;1.10;;;10.50;99.90;;;;;;4957714;28;20438;-74
2023/01/04 11:25:40;;;;;;;1.70;1.10;;;10.60;99.90;;;;;;4974501;28;20445;-74
2023/01/04 11:28:24;;;;;;;1.30;1.20;;;10.50;99.90;;;;;;4975266;28;20426;-75
2023/01/04 11:30:56;;;;;;;1.47;1.07;;;10.60;99.90;;;;;;4967033;28;20968;-74
2023/01/04 11:33:25;;;;;;;4.53;1.50;;;10.60;99.90;;;;;;4953694;28;20852;-74
2023/01/04 11:35:55;;;;;;;2.20;1.40;;;10.60;99.90;;;;;;4969530;28;20430;-76
2023/01/04 11:38:26;;;;;;;1.30;1.20;;;10.60;99.90;;;;;;4975090;28;20469;-75
2023/01/04 11:41:00;;;;;;;1.77;1.10;;;10.60;99.90;;;;;;4973888;28;20430;-75
2023/01/04 11:43:28;;;;;;;1.70;1.43;;;10.60;99.90;;;;;;4973460;28;20450;-75
2023/01/04 11:46:24;;;;;;;1.27;1.17;;;10.60;99.90;;;;;;4954216;28;20428;-74
2023/01/04 11:48:52;;;;;;;2.37;1.50;;;10.70;99.90;;;;;;4962418;28;20437;-76
2023/01/04 11:51:28;;;;;;;2.60;1.70;;;10.60;99.90;;;;;;4960178;28;20432;-75
2023/01/04 11:54:00;;;;;;;2.00;1.60;;;10.70;99.90;;;;;;4953734;29;20438;-75
2023/01/04 11:56:28;;;;;;;2.10;1.90;;;10.70;99.90;;;;;;4952631;28;20513;-75
2023/01/04 11:59:14;;;;;;;1.73;1.30;;;10.70;99.90;;;;;;4954973;28;20960;-75
2023/01/04 12:01:46;;;;;;;2.70;1.83;;;10.70;99.90;;;;;;4953812;28;20458;-75
2023/01/04 12:04:23;;;;;;;2.47;1.60;;;10.70;99.90;;;;;;4938036;28;20448;-75
2023/01/04 12:07:00;;;;;;;2.40;1.80;;;10.70;99.90;;;;;;4953657;28;20509;-75
2023/01/04 12:09:29;;;;;;;2.00;1.77;;;10.70;99.90;;;;;;4953965;28;20844;-76
2023/01/04 12:11:58;;;;;;;2.00;1.50;;;10.80;99.90;;;;;;4979620;28;20460;-78
2023/01/04 12:14:33;;;;;;;2.07;1.70;;;10.80;99.90;;;;;;4992290;28;20442;-78
2023/01/04 12:17:18;;;;;;;1.70;1.30;;;10.80;99.90;;;;;;4974713;28;20398;-77
2023/01/04 12:19:53;;;;;;;2.37;1.40;;;10.80;99.90;;;;;;4953174;28;20484;-77
2023/01/04 12:22:30;;;;;;;2.00;1.37;;;10.80;99.90;;;;;;4960775;28;20445;-78
2023/01/04 12:24:57;;;;;;;1.67;1.30;;;10.80;99.90;;;;;;4958725;28;21051;-77
2023/01/04 12:27:28;;;;;;;1.93;1.50;;;10.80;99.90;;;;;;4970505;28;20518;-78
2023/01/04 12:30:00;;;;;;;2.00;1.20;;;10.80;99.90;;;;;;4941973;28;20438;-78
2023/01/04 12:32:26;;;;;;;1.63;1.50;;;10.80;99.90;;;;;;4940987;28;20872;-77
2023/01/04 12:34:53;;;;;;;1.40;1.10;;;10.80;99.90;;;;;;4971879;28;20538;-78
2023/01/04 12:37:44;;;;;;;2.43;1.43;;;10.90;99.90;;;;;;4972740;28;20541;-78
2023/01/04 12:40:48;;;;;;;1.70;1.20;;;10.90;99.90;;;;;;4972347;28;20422;-77
2023/01/04 12:43:23;;;;;;;1.30;1.20;;;10.90;99.90;;;;;;4980608;28;20445;-80
2023/01/04 12:49:27;;;;;;;1.97;1.77;;;10.90;99.90;;;;;;5007111;28;20433;-80
2023/01/04 12:52:09;;;;;;;2.00;1.27;;;10.90;99.90;;;;;;4986481;28;21019;-80
2023/01/04 12:55:02;;;;;;;2.23;1.10;;;10.90;99.90;;;;;;4987684;28;20468;-80
2023/01/04 12:57:32;;;;;;;1.10;1.00;;;10.90;99.90;;;;;;4963379;28;20451;-80
2023/01/04 13:00:17;;;;;;;1.43;1.27;;;10.90;99.90;;;;;;4981617;28;20435;-79
2023/01/04 13:03:16;;;;;;;1.20;1.10;;;10.90;99.90;;;;;;4956591;28;20436;-80
2023/01/04 13:05:55;;;;;;;1.90;1.30;;;10.90;99.90;;;;;;4987819;28;20442;-80
2023/01/04 13:08:24;;;;;;;1.37;1.17;;;10.90;99.90;;;;;;4983663;28;20450;-80
2023/01/04 13:10:54;;;;;;;1.20;1.10;;;10.90;99.90;;;;;;4969053;28;20798;-80
2023/01/04 13:14:01;;;;;;;2.13;1.00;;;11.00;99.90;;;;;;4971819;28;20526;-80
2023/01/04 13:17:04;;;;;;;1.50;1.20;;;10.90;99.90;;;;;;4954382;29;20454;-80
2023/01/04 13:19:30;;;;;;;1.30;0.80;;;11.00;99.90;;;;;;4869854;29;20493;-80
2023/01/04 13:21:57;;;;;;;1.83;1.07;;;11.00;99.90;;;;;;4889964;29;20426;-80
2023/01/04 13:24:29;;;;;;;2.10;1.13;;;11.00;99.90;;;;;;4875919;29;20522;-80
2023/01/04 13:27:19;;;;;;;2.70;1.33;;;11.00;99.90;;;;;;4888015;29;20470;-80
2023/01/04 13:29:54;;;;;;;1.70;1.00;;;11.00;99.90;;;;;;4860681;29;20435;-80
2023/01/04 13:32:54;;;;;;;1.27;0.90;;;11.00;99.90;;;;;;4898399;29;20450;-79
2023/01/04 13:36:07;;;;;;;1.00;0.90;;;11.00;99.90;;;;;;4884374;29;20458;-80
2023/01/04 13:38:46;;;;;;;1.23;0.97;;;11.00;99.90;;;;;;4886416;29;20466;-80
2023/01/04 13:41:33;;;;;;;1.10;1.00;;;11.00;99.90;;;;;;4878933;29;20417;-80
2023/01/04 13:44:10;;;;;;;1.00;0.90;;;11.00;99.90;;;;;;4893966;29;20526;-80
2023/01/04 13:46:41;;;;;;;2.30;1.10;;;11.00;99.90;;;;;;4893646;29;20442;-80
2023/01/04 13:49:16;;;;;;;1.53;1.03;;;11.00;99.90;;;;;;4879090;29;20466;-79
2023/01/04 13:51:42;;;;;;;2.07;0.83;;;11.00;99.90;;;;;;4879658;29;20449;-79
2023/01/04 13:54:23;;;;;;;1.10;0.90;;;11.10;99.90;;;;;;4861450;29;20459;-80
2023/01/04 13:57:08;;;;;;;1.30;1.07;;;11.10;99.90;;;;;;4970531;28;20474;-80
2023/01/04 13:59:39;;;;;;;0.90;0.60;;;11.10;99.90;;;;;;4955551;29;20463;-80
2023/01/04 14:02:34;;;;;;;0.80;0.80;;;11.10;99.90;;;;;;4973048;28;20431;-80
2023/01/04 14:05:04;;;;;;;1.33;0.83;;;11.10;99.90;;;;;;4996342;28;20453;-80
2023/01/04 14:07:30;;;;;;;1.60;1.03;;;11.20;99.90;;;;;;4964594;28;20450;-80
2023/01/04 14:09:59;;;;;;;6.30;0.97;;;11.20;99.90;;;;;;4972024;28;20442;-80